Flight Track Log - Related Links

Times and Time Zones

All times are in EDT time to prevent confusion due to time zone crossing. See the N488VC flight status page for this flight to view local times or setup timezone preferences in your user account.

Time Position Orientation Groundspeed Altitude Reporting Facility
EDT Latitude Longitude Course Direction KTS MPH feet Rate Location/Type
Mon 06:58:35 PM 41.9228 -72.6744 218° Southwest 175 201 1,200  Level Boston Center
Mon 06:59:29 PM 41.8936 -72.7050 218° Southwest 199 229 3,100 2,372 Climbing Boston Center
Mon 07:01:27 PM 41.8786 -72.8833 264° West 281 323 8,000 2,080 Climbing Boston Center
Mon 07:02:25 PM 41.8447 -72.9781 244° Southwest 281 323 9,200 1,068 Climbing Boston Center
Mon 07:03:25 PM 41.7961 -73.0861 239° Southwest 303 349 10,100 446 Climbing Boston Center
Mon 07:04:26 PM 41.7497 -73.1886 239° Southwest 323 372 10,100  Level Boston Center
Mon 07:05:26 PM 41.7011 -73.2992 240° Southwest 345 397 10,100 -50 Level Boston Center
Mon 07:06:25 PM 41.6458 -73.4125 237° Southwest 356 410 10,000 -407 Descending Boston Center
Mon 07:08:08 PM 41.5833 -73.5667 242° Southwest 261 300 9,000 -1,067 Descending New TRACON
Mon 07:09:08 PM 41.5167 -73.6167 209° Southwest 270 311 7,100 -1,950 Descending New TRACON
Mon 07:10:08 PM 41.4500 -73.6667 209° Southwest 268 308 5,100 -1,900 Descending New TRACON
Mon 07:11:08 PM 41.3833 -73.7000 201° Southwest 258 297 3,300 -1,000 Descending New TRACON
Mon 07:12:08 PM 41.3167 -73.7333 201° Southwest 231 266 3,100 -450 Descending New TRACON
Mon 07:13:08 PM 41.2667 -73.7833 217° Southwest 232 267 2,400 -524 Descending New TRACON
Mon 07:14:14 PM 41.2000 -73.7833 180° South 199 229 2,000 -200 Descending New TRACON
Mon 07:15:08 PM 41.1667 -73.7833 180° South 166 191 2,000 -250 Level New TRACON
Mon 07:16:14 PM 41.1167 -73.7500 153° Southeast 135 155 1,500 -550 Descending New TRACON
Mon 07:17:08 PM 41.1000 -73.7333 143° Southeast 125 144 900 -667 Descending New TRACON
Mon 07:19:00 PM 41.0669 -73.7076 246° West  Level Estimated
Mon 07:26:00 PM 41.0667 -73.7000 246° West  Level FlightAware

Login

Don't have an account? Register now (free) for customized features, flight alerts, and more!